首页
METAR-TAF:

METAR-TAF

机场 :

埃森博阿国际机场

安卡拉埃森博阿, 土耳其

纬度: 40-07N, 经度: 032-59E, 海拔: 953米

当前天气观测

该预报发布于45分钟前的00:20 UTC
风速6节,风向北转东北
温度 5°C
湿度 70%
气压 1025 hPa
能见度10公里或以上
散云层高于4000英尺

METAR: LTAC 130020Z 02006KT 9999 SCT040 05/00 Q1025 NOSIG

时间: 04:05 (01:05 UTC)

预报

该预报发布于2小时和25分钟前的22:40 UTC
预报有效从13日的 00点(UTC)到 13日的 24点(UTC)
风速2节,风向多变
能见度10公里或以上
散云层高于4000英尺

TAF: LTAC 122240Z 1300/1324 VRB02KT 9999 SCT040

超过4000个机场的气象观测和天气预报(METAR&TAF报告)。

可查询的气象台以黄色和红色小点在地图上表示。

将鼠标移到小点上方,可查看气象台名称。

然后点击查看天气观测和预报。

如需切换地图:点击带黑十字的绿色按钮放大地图;点击带横线的绿色按钮缩小地图;或者点击绿色箭头查看邻近地区的地图。


METAR-TAF: